sensor_id;sensor_type;location;lat;lon;timestamp;pressure;altitude;pressure_sealevel;temperature;humidity
70338;BME280;57757;53.198;19.646;2022-07-06T00:01:37;100402.88;;;18.44;45.19
70338;BME280;57757;53.198;19.646;2022-07-06T00:04:05;100405.27;;;18.45;45.25
70338;BME280;57757;53.198;19.646;2022-07-06T00:06:33;100411.43;;;18.45;45.41
70338;BME280;57757;53.198;19.646;2022-07-06T00:09:01;100413.80;;;18.44;45.47
70338;BME280;57757;53.198;19.646;2022-07-06T00:11:28;100409.54;;;18.45;45.55
70338;BME280;57757;53.198;19.646;2022-07-06T00:13:56;100400.19;;;18.45;45.64
70338;BME280;57757;53.198;19.646;2022-07-06T00:16:24;100399.42;;;18.46;45.74
70338;BME280;57757;53.198;19.646;2022-07-06T00:18:52;100397.88;;;18.46;45.75
70338;BME280;57757;53.198;19.646;2022-07-06T00:21:19;100401.13;;;18.44;45.86
70338;BME280;57757;53.198;19.646;2022-07-06T00:23:47;100397.38;;;18.45;45.99
70338;BME280;57757;53.198;19.646;2022-07-06T00:26:14;100404.27;;;18.44;46.11
70338;BME280;57757;53.198;19.646;2022-07-06T00:28:42;100401.38;;;18.46;46.18
70338;BME280;57757;53.198;19.646;2022-07-06T00:31:09;100400.05;;;18.48;46.15
70338;BME280;57757;53.198;19.646;2022-07-06T00:33:37;100401.39;;;18.49;46.24
70338;BME280;57757;53.198;19.646;2022-07-06T00:36:05;100401.98;;;18.51;46.30
70338;BME280;57757;53.198;19.646;2022-07-06T00:38:32;100400.84;;;18.53;46.41
70338;BME280;57757;53.198;19.646;2022-07-06T00:41:00;100400.48;;;18.54;46.47
70338;BME280;57757;53.198;19.646;2022-07-06T00:43:27;100400.50;;;18.53;46.43
70338;BME280;57757;53.198;19.646;2022-07-06T00:45:55;100401.14;;;18.50;46.44
70338;BME280;57757;53.198;19.646;2022-07-06T00:48:22;100404.91;;;18.49;46.68
70338;BME280;57757;53.198;19.646;2022-07-06T00:50:51;100405.36;;;18.47;46.53
70338;BME280;57757;53.198;19.646;2022-07-06T00:53:18;100407.15;;;18.43;46.73
70338;BME280;57757;53.198;19.646;2022-07-06T00:55:46;100405.02;;;18.40;46.70
70338;BME280;57757;53.198;19.646;2022-07-06T00:58:13;100407.06;;;18.38;46.85
70338;BME280;57757;53.198;19.646;2022-07-06T01:00:41;100405.09;;;18.36;46.75
70338;BME280;57757;53.198;19.646;2022-07-06T01:03:12;100403.59;;;18.34;46.98
70338;BME280;57757;53.198;19.646;2022-07-06T01:05:39;100401.09;;;18.31;46.95
70338;BME280;57757;53.198;19.646;2022-07-06T01:08:07;100395.11;;;18.28;47.05
70338;BME280;57757;53.198;19.646;2022-07-06T01:10:34;100397.58;;;18.24;46.96
70338;BME280;57757;53.198;19.646;2022-07-06T01:13:02;100396.13;;;18.22;47.23
70338;BME280;57757;53.198;19.646;2022-07-06T01:15:29;100388.16;;;18.19;47.15
70338;BME280;57757;53.198;19.646;2022-07-06T01:17:57;100386.60;;;18.15;47.32
70338;BME280;57757;53.198;19.646;2022-07-06T01:20:25;100389.60;;;18.11;47.26
70338;BME280;57757;53.198;19.646;2022-07-06T01:22:53;100387.39;;;18.07;47.49
70338;BME280;57757;53.198;19.646;2022-07-06T01:25:21;100387.82;;;18.02;47.51
70338;BME280;57757;53.198;19.646;2022-07-06T01:27:49;100390.11;;;17.99;47.60
70338;BME280;57757;53.198;19.646;2022-07-06T01:30:18;100389.15;;;17.97;47.49
70338;BME280;57757;53.198;19.646;2022-07-06T01:32:46;100386.74;;;17.95;47.59
70338;BME280;57757;53.198;19.646;2022-07-06T01:35:14;100389.08;;;17.95;47.56
70338;BME280;57757;53.198;19.646;2022-07-06T01:37:42;100385.73;;;17.91;47.53
70338;BME280;57757;53.198;19.646;2022-07-06T01:40:11;100389.21;;;17.89;47.74
70338;BME280;57757;53.198;19.646;2022-07-06T01:42:39;100391.67;;;17.85;47.72
70338;BME280;57757;53.198;19.646;2022-07-06T01:45:08;100385.00;;;17.81;47.68
70338;BME280;57757;53.198;19.646;2022-07-06T01:47:35;100388.71;;;17.77;47.84
70338;BME280;57757;53.198;19.646;2022-07-06T01:50:07;100390.83;;;17.74;47.99
70338;BME280;57757;53.198;19.646;2022-07-06T01:52:35;100392.32;;;17.69;48.02
70338;BME280;57757;53.198;19.646;2022-07-06T01:55:03;100391.35;;;17.63;48.15
70338;BME280;57757;53.198;19.646;2022-07-06T01:57:31;100394.84;;;17.56;48.37
70338;BME280;57757;53.198;19.646;2022-07-06T01:59:59;100395.77;;;17.51;48.56
70338;BME280;57757;53.198;19.646;2022-07-06T02:02:26;100400.08;;;17.46;48.52
70338;BME280;57757;53.198;19.646;2022-07-06T02:04:54;100397.88;;;17.40;48.76
70338;BME280;57757;53.198;19.646;2022-07-06T02:07:21;100399.52;;;17.35;48.85
70338;BME280;57757;53.198;19.646;2022-07-06T02:09:49;100396.18;;;17.32;48.89
70338;BME280;57757;53.198;19.646;2022-07-06T02:12:16;100393.39;;;17.28;49.09
70338;BME280;57757;53.198;19.646;2022-07-06T02:14:44;100400.92;;;17.25;49.15
70338;BME280;57757;53.198;19.646;2022-07-06T02:17:11;100402.23;;;17.23;49.35
70338;BME280;57757;53.198;19.646;2022-07-06T02:19:39;100403.48;;;17.18;49.45
70338;BME280;57757;53.198;19.646;2022-07-06T02:22:06;100405.56;;;17.16;49.56
70338;BME280;57757;53.198;19.646;2022-07-06T02:24:34;100407.30;;;17.13;49.66
70338;BME280;57757;53.198;19.646;2022-07-06T02:27:01;100405.55;;;17.09;49.76
70338;BME280;57757;53.198;19.646;2022-07-06T02:29:29;100404.15;;;17.05;49.84
70338;BME280;57757;53.198;19.646;2022-07-06T02:31:56;100404.52;;;17.01;49.90
70338;BME280;57757;53.198;19.646;2022-07-06T02:34:24;100402.95;;;16.97;49.92
70338;BME280;57757;53.198;19.646;2022-07-06T02:36:51;100399.92;;;16.94;50.08
70338;BME280;57757;53.198;19.646;2022-07-06T02:39:19;100402.98;;;16.92;50.02
70338;BME280;57757;53.198;19.646;2022-07-06T02:41:46;100403.88;;;16.92;50.21
70338;BME280;57757;53.198;19.646;2022-07-06T02:44:14;100400.07;;;16.91;50.31
70338;BME280;57757;53.198;19.646;2022-07-06T02:46:41;100401.38;;;16.89;50.38
70338;BME280;57757;53.198;19.646;2022-07-06T02:49:09;100395.48;;;16.88;50.49
70338;BME280;57757;53.198;19.646;2022-07-06T02:51:36;100393.19;;;16.88;50.59
70338;BME280;57757;53.198;19.646;2022-07-06T02:54:04;100391.16;;;16.86;50.69
70338;BME280;57757;53.198;19.646;2022-07-06T02:56:31;100396.83;;;16.85;50.63
70338;BME280;57757;53.198;19.646;2022-07-06T02:58:59;100392.23;;;16.82;50.83
70338;BME280;57757;53.198;19.646;2022-07-06T03:01:26;100389.37;;;16.79;50.79
70338;BME280;57757;53.198;19.646;2022-07-06T03:03:54;100387.54;;;16.77;50.98
70338;BME280;57757;53.198;19.646;2022-07-06T03:06:21;100387.23;;;16.76;51.05
70338;BME280;57757;53.198;19.646;2022-07-06T03:08:49;100386.54;;;16.76;51.02
70338;BME280;57757;53.198;19.646;2022-07-06T03:11:16;100383.16;;;16.77;51.15
70338;BME280;57757;53.198;19.646;2022-07-06T03:13:44;100383.84;;;16.77;51.28
70338;BME280;57757;53.198;19.646;2022-07-06T03:16:11;100386.69;;;16.76;51.35
70338;BME280;57757;53.198;19.646;2022-07-06T03:18:39;100380.08;;;16.75;51.42
70338;BME280;57757;53.198;19.646;2022-07-06T03:21:07;100375.80;;;16.72;51.51
70338;BME280;57757;53.198;19.646;2022-07-06T03:23:34;100371.13;;;16.71;51.56
70338;BME280;57757;53.198;19.646;2022-07-06T03:26:02;100368.38;;;16.69;51.65
70338;BME280;57757;53.198;19.646;2022-07-06T03:28:29;100368.29;;;16.67;51.64
70338;BME280;57757;53.198;19.646;2022-07-06T03:30:57;100368.23;;;16.65;51.79
70338;BME280;57757;53.198;19.646;2022-07-06T03:33:24;100370.41;;;16.63;51.82
70338;BME280;57757;53.198;19.646;2022-07-06T03:35:51;100368.70;;;16.62;51.82
70338;BME280;57757;53.198;19.646;2022-07-06T03:38:19;100370.55;;;16.60;51.86
70338;BME280;57757;53.198;19.646;2022-07-06T03:40:47;100370.60;;;16.59;51.99
70338;BME280;57757;53.198;19.646;2022-07-06T03:43:15;100379.00;;;16.60;52.06
70338;BME280;57757;53.198;19.646;2022-07-06T03:45:42;100378.36;;;16.58;52.03
70338;BME280;57757;53.198;19.646;2022-07-06T03:48:10;100381.23;;;16.57;52.06
70338;BME280;57757;53.198;19.646;2022-07-06T03:50:37;100381.34;;;16.54;52.12
70338;BME280;57757;53.198;19.646;2022-07-06T03:53:05;100381.73;;;16.53;52.27
70338;BME280;57757;53.198;19.646;2022-07-06T03:55:32;100384.02;;;16.53;52.37
70338;BME280;57757;53.198;19.646;2022-07-06T03:58:00;100379.16;;;16.52;52.26
70338;BME280;57757;53.198;19.646;2022-07-06T04:00:33;100377.09;;;16.51;52.44
70338;BME280;57757;53.198;19.646;2022-07-06T04:03:01;100375.78;;;16.52;52.48
70338;BME280;57757;53.198;19.646;2022-07-06T04:05:29;100372.73;;;16.54;52.39
70338;BME280;57757;53.198;19.646;2022-07-06T04:07:56;100376.64;;;16.58;52.62
70338;BME280;57757;53.198;19.646;2022-07-06T04:10:24;100374.16;;;16.62;52.55
70338;BME280;57757;53.198;19.646;2022-07-06T04:12:51;100375.52;;;16.63;52.55
70338;BME280;57757;53.198;19.646;2022-07-06T04:15:19;100371.52;;;16.62;52.50
70338;BME280;57757;53.198;19.646;2022-07-06T04:17:46;100366.42;;;16.62;52.51
70338;BME280;57757;53.198;19.646;2022-07-06T04:20:20;100365.59;;;16.61;52.48
70338;BME280;57757;53.198;19.646;2022-07-06T04:22:49;100360.80;;;16.63;52.56
70338;BME280;57757;53.198;19.646;2022-07-06T04:25:16;100365.11;;;16.64;52.58
70338;BME280;57757;53.198;19.646;2022-07-06T04:27:44;100364.82;;;16.63;52.59
70338;BME280;57757;53.198;19.646;2022-07-06T04:30:12;100363.64;;;16.66;52.74
70338;BME280;57757;53.198;19.646;2022-07-06T04:32:39;100364.30;;;16.70;52.77
70338;BME280;57757;53.198;19.646;2022-07-06T04:35:07;100368.41;;;16.76;52.63
70338;BME280;57757;53.198;19.646;2022-07-06T04:37:35;100366.48;;;16.81;52.80
70338;BME280;57757;53.198;19.646;2022-07-06T04:40:03;100369.19;;;16.86;52.81
70338;BME280;57757;53.198;19.646;2022-07-06T04:42:31;100365.55;;;16.93;52.72
70338;BME280;57757;53.198;19.646;2022-07-06T04:44:58;100369.71;;;17.01;52.83
70338;BME280;57757;53.198;19.646;2022-07-06T04:47:26;100366.36;;;17.09;52.89
70338;BME280;57757;53.198;19.646;2022-07-06T04:49:53;100362.90;;;17.19;53.03
70338;BME280;57757;53.198;19.646;2022-07-06T04:52:21;100360.70;;;17.28;52.99
70338;BME280;57757;53.198;19.646;2022-07-06T04:54:48;100359.05;;;17.37;52.89
70338;BME280;57757;53.198;19.646;2022-07-06T04:57:16;100359.14;;;17.45;53.04
70338;BME280;57757;53.198;19.646;2022-07-06T04:59:43;100355.52;;;17.55;52.92
70338;BME280;57757;53.198;19.646;2022-07-06T05:02:11;100357.88;;;17.64;52.70
70338;BME280;57757;53.198;19.646;2022-07-06T05:04:38;100356.36;;;17.74;52.62
70338;BME280;57757;53.198;19.646;2022-07-06T05:07:06;100357.20;;;17.82;52.55
70338;BME280;57757;53.198;19.646;2022-07-06T05:09:34;100352.28;;;17.88;52.44
70338;BME280;57757;53.198;19.646;2022-07-06T05:12:01;100353.59;;;17.97;52.41
70338;BME280;57757;53.198;19.646;2022-07-06T05:14:29;100351.80;;;18.04;52.32
70338;BME280;57757;53.198;19.646;2022-07-06T05:16:56;100354.86;;;18.13;52.27
70338;BME280;57757;53.198;19.646;2022-07-06T05:19:24;100355.29;;;18.22;52.25
70338;BME280;57757;53.198;19.646;2022-07-06T05:21:51;100358.02;;;18.30;52.18
70338;BME280;57757;53.198;19.646;2022-07-06T05:24:19;100361.82;;;18.38;52.33
70338;BME280;57757;53.198;19.646;2022-07-06T05:26:47;100363.02;;;18.48;52.10
70338;BME280;57757;53.198;19.646;2022-07-06T05:29:14;100362.56;;;18.57;52.02
70338;BME280;57757;53.198;19.646;2022-07-06T05:31:42;100357.52;;;18.67;51.73
70338;BME280;57757;53.198;19.646;2022-07-06T05:34:09;100356.04;;;18.74;51.55
70338;BME280;57757;53.198;19.646;2022-07-06T05:36:37;100352.70;;;18.81;51.34
70338;BME280;57757;53.198;19.646;2022-07-06T05:39:04;100353.88;;;18.88;51.23
70338;BME280;57757;53.198;19.646;2022-07-06T05:41:32;100347.86;;;18.95;51.25
70338;BME280;57757;53.198;19.646;2022-07-06T05:43:59;100341.44;;;18.99;51.06
70338;BME280;57757;53.198;19.646;2022-07-06T05:46:27;100345.06;;;19.03;50.89
70338;BME280;57757;53.198;19.646;2022-07-06T05:48:55;100342.72;;;19.08;50.99
70338;BME280;57757;53.198;19.646;2022-07-06T05:51:39;100340.91;;;19.18;50.88
70338;BME280;57757;53.198;19.646;2022-07-06T05:54:06;100338.96;;;19.27;50.75
70338;BME280;57757;53.198;19.646;2022-07-06T05:56:33;100341.17;;;19.38;50.68
70338;BME280;57757;53.198;19.646;2022-07-06T05:59:01;100333.87;;;19.45;50.56
70338;BME280;57757;53.198;19.646;2022-07-06T06:01:28;100336.48;;;19.52;50.19
70338;BME280;57757;53.198;19.646;2022-07-06T06:03:56;100335.83;;;19.61;50.12
70338;BME280;57757;53.198;19.646;2022-07-06T06:06:23;100340.73;;;19.71;49.84
70338;BME280;57757;53.198;19.646;2022-07-06T06:08:51;100342.98;;;19.77;49.70
70338;BME280;57757;53.198;19.646;2022-07-06T06:11:19;100347.61;;;19.82;49.56
70338;BME280;57757;53.198;19.646;2022-07-06T06:13:46;100348.06;;;19.90;49.47
70338;BME280;57757;53.198;19.646;2022-07-06T06:16:14;100345.04;;;19.96;49.14
70338;BME280;57757;53.198;19.646;2022-07-06T06:18:42;100347.30;;;20.02;48.93
70338;BME280;57757;53.198;19.646;2022-07-06T06:21:10;100342.85;;;20.06;48.77
70338;BME280;57757;53.198;19.646;2022-07-06T06:23:38;100341.52;;;20.10;48.72
70338;BME280;57757;53.198;19.646;2022-07-06T06:26:05;100339.91;;;20.16;48.58
70338;BME280;57757;53.198;19.646;2022-07-06T06:28:33;100341.60;;;20.20;48.44
70338;BME280;57757;53.198;19.646;2022-07-06T06:31:00;100339.78;;;20.27;48.51
70338;BME280;57757;53.198;19.646;2022-07-06T06:33:28;100344.41;;;20.35;48.34
70338;BME280;57757;53.198;19.646;2022-07-06T06:35:55;100346.29;;;20.45;48.30
70338;BME280;57757;53.198;19.646;2022-07-06T06:38:23;100341.98;;;20.52;48.19
70338;BME280;57757;53.198;19.646;2022-07-06T06:40:56;100343.18;;;20.61;48.21
70338;BME280;57757;53.198;19.646;2022-07-06T06:43:24;100343.09;;;20.68;47.99
70338;BME280;57757;53.198;19.646;2022-07-06T06:45:52;100345.45;;;20.76;47.86
70338;BME280;57757;53.198;19.646;2022-07-06T06:48:20;100346.77;;;20.83;47.69
70338;BME280;57757;53.198;19.646;2022-07-06T06:50:47;100344.42;;;20.91;47.69
70338;BME280;57757;53.198;19.646;2022-07-06T06:53:15;100348.84;;;20.97;47.32
70338;BME280;57757;53.198;19.646;2022-07-06T06:55:42;100348.47;;;21.00;47.18
70338;BME280;57757;53.198;19.646;2022-07-06T06:58:10;100347.98;;;21.08;47.24
70338;BME280;57757;53.198;19.646;2022-07-06T07:00:37;100342.85;;;21.14;46.90
70338;BME280;57757;53.198;19.646;2022-07-06T07:03:05;100342.45;;;21.17;46.76
70338;BME280;57757;53.198;19.646;2022-07-06T07:05:32;100337.70;;;21.25;46.77
70338;BME280;57757;53.198;19.646;2022-07-06T07:08:00;100334.16;;;21.30;46.61
70338;BME280;57757;53.198;19.646;2022-07-06T07:10:32;100335.85;;;21.37;46.36
70338;BME280;57757;53.198;19.646;2022-07-06T07:13:00;100331.98;;;21.44;46.38
70338;BME280;57757;53.198;19.646;2022-07-06T07:15:27;100333.36;;;21.53;46.31
70338;BME280;57757;53.198;19.646;2022-07-06T07:17:55;100325.36;;;21.62;46.09
70338;BME280;57757;53.198;19.646;2022-07-06T07:20:23;100329.27;;;21.69;46.10
70338;BME280;57757;53.198;19.646;2022-07-06T07:22:50;100328.35;;;21.75;45.83
70338;BME280;57757;53.198;19.646;2022-07-06T07:25:18;100324.17;;;21.77;45.69
70338;BME280;57757;53.198;19.646;2022-07-06T07:27:45;100318.67;;;21.79;45.68
70338;BME280;57757;53.198;19.646;2022-07-06T07:30:13;100320.42;;;21.85;45.69
70338;BME280;57757;53.198;19.646;2022-07-06T07:32:40;100323.75;;;21.94;45.57
70338;BME280;57757;53.198;19.646;2022-07-06T07:35:08;100326.36;;;22.02;45.42
70338;BME280;57757;53.198;19.646;2022-07-06T07:37:36;100326.83;;;22.05;45.23
70338;BME280;57757;53.198;19.646;2022-07-06T07:40:05;100321.30;;;22.08;45.23
70338;BME280;57757;53.198;19.646;2022-07-06T07:42:33;100322.95;;;22.10;44.91
70338;BME280;57757;53.198;19.646;2022-07-06T07:45:01;100327.81;;;22.04;44.50
70338;BME280;57757;53.198;19.646;2022-07-06T07:47:28;100329.59;;;21.99;44.34
70338;BME280;57757;53.198;19.646;2022-07-06T07:49:56;100327.67;;;21.98;44.67
70338;BME280;57757;53.198;19.646;2022-07-06T07:52:23;100333.93;;;21.97;44.37
70338;BME280;57757;53.198;19.646;2022-07-06T07:54:51;100330.92;;;21.95;44.53
70338;BME280;57757;53.198;19.646;2022-07-06T07:57:39;100333.77;;;21.91;44.31
70338;BME280;57757;53.198;19.646;2022-07-06T08:00:07;100341.22;;;21.86;44.11
70338;BME280;57757;53.198;19.646;2022-07-06T08:02:34;100344.23;;;21.78;44.09
70338;BME280;57757;53.198;19.646;2022-07-06T08:05:03;100338.82;;;21.75;44.11
70338;BME280;57757;53.198;19.646;2022-07-06T08:07:31;100337.59;;;21.75;44.05
70338;BME280;57757;53.198;19.646;2022-07-06T08:09:59;100341.30;;;21.77;44.12
70338;BME280;57757;53.198;19.646;2022-07-06T08:12:26;100340.30;;;21.86;44.25
70338;BME280;57757;53.198;19.646;2022-07-06T08:14:54;100344.70;;;22.00;44.24
70338;BME280;57757;53.198;19.646;2022-07-06T08:17:23;100342.86;;;22.14;44.03
70338;BME280;57757;53.198;19.646;2022-07-06T08:19:50;100345.14;;;22.27;43.86
70338;BME280;57757;53.198;19.646;2022-07-06T08:22:18;100344.36;;;22.38;43.70
70338;BME280;57757;53.198;19.646;2022-07-06T08:24:45;100342.85;;;22.45;43.47
70338;BME280;57757;53.198;19.646;2022-07-06T08:27:13;100338.77;;;22.48;43.47
70338;BME280;57757;53.198;19.646;2022-07-06T08:29:40;100336.91;;;22.54;43.39
70338;BME280;57757;53.198;19.646;2022-07-06T08:32:08;100335.14;;;22.69;43.43
70338;BME280;57757;53.198;19.646;2022-07-06T08:34:49;100336.79;;;22.78;42.96
70338;BME280;57757;53.198;19.646;2022-07-06T08:37:16;100335.41;;;22.80;42.94
70338;BME280;57757;53.198;19.646;2022-07-06T08:39:44;100334.11;;;22.91;42.90
70338;BME280;57757;53.198;19.646;2022-07-06T08:42:12;100324.24;;;22.92;42.63
70338;BME280;57757;53.198;19.646;2022-07-06T08:44:43;100331.92;;;22.97;42.61
70338;BME280;57757;53.198;19.646;2022-07-06T08:47:11;100331.49;;;23.07;42.60
70338;BME280;57757;53.198;19.646;2022-07-06T08:49:42;100330.00;;;23.20;42.51
70338;BME280;57757;53.198;19.646;2022-07-06T08:52:10;100329.88;;;23.33;42.39
70338;BME280;57757;53.198;19.646;2022-07-06T08:54:38;100331.66;;;23.46;42.20
70338;BME280;57757;53.198;19.646;2022-07-06T08:57:07;100327.09;;;23.55;41.96
70338;BME280;57757;53.198;19.646;2022-07-06T08:59:34;100328.44;;;23.63;41.95
70338;BME280;57757;53.198;19.646;2022-07-06T09:02:03;100328.42;;;23.63;41.82
70338;BME280;57757;53.198;19.646;2022-07-06T09:04:35;100333.09;;;23.55;41.80
70338;BME280;57757;53.198;19.646;2022-07-06T09:07:03;100330.53;;;23.52;41.67
70338;BME280;57757;53.198;19.646;2022-07-06T09:09:31;100330.46;;;23.43;41.53
70338;BME280;57757;53.198;19.646;2022-07-06T09:12:00;100336.66;;;23.38;41.55
70338;BME280;57757;53.198;19.646;2022-07-06T09:14:31;100334.58;;;23.30;41.62
70338;BME280;57757;53.198;19.646;2022-07-06T09:17:06;100336.93;;;23.17;41.55
70338;BME280;57757;53.198;19.646;2022-07-06T09:19:45;100339.91;;;23.01;41.54
70338;BME280;57757;53.198;19.646;2022-07-06T09:22:25;100342.30;;;22.88;41.63
70338;BME280;57757;53.198;19.646;2022-07-06T09:24:55;100336.64;;;22.75;41.85
70338;BME280;57757;53.198;19.646;2022-07-06T09:27:28;100342.86;;;22.67;41.93
70338;BME280;57757;53.198;19.646;2022-07-06T09:29:59;100332.91;;;22.62;41.85
70338;BME280;57757;53.198;19.646;2022-07-06T09:32:26;100332.65;;;22.64;41.91
70338;BME280;57757;53.198;19.646;2022-07-06T09:34:54;100337.42;;;22.64;41.73
70338;BME280;57757;53.198;19.646;2022-07-06T09:37:22;100342.70;;;22.57;41.81
70338;BME280;57757;53.198;19.646;2022-07-06T09:39:53;100339.10;;;22.60;41.97
70338;BME280;57757;53.198;19.646;2022-07-06T09:42:25;100337.16;;;22.68;41.95
70338;BME280;57757;53.198;19.646;2022-07-06T09:44:53;100331.95;;;22.94;42.09
70338;BME280;57757;53.198;19.646;2022-07-06T09:47:21;100331.73;;;23.35;42.33
70338;BME280;57757;53.198;19.646;2022-07-06T09:49:48;100330.05;;;23.76;41.95
70338;BME280;57757;53.198;19.646;2022-07-06T09:52:16;100336.46;;;23.90;41.46
70338;BME280;57757;53.198;19.646;2022-07-06T09:54:48;100333.41;;;24.00;41.55
70338;BME280;57757;53.198;19.646;2022-07-06T09:57:16;100332.31;;;24.14;41.38
70338;BME280;57757;53.198;19.646;2022-07-06T09:59:50;100332.54;;;24.25;41.29
70338;BME280;57757;53.198;19.646;2022-07-06T10:02:19;100330.30;;;24.24;41.05
70338;BME280;57757;53.198;19.646;2022-07-06T10:04:48;100331.52;;;24.22;41.31
70338;BME280;57757;53.198;19.646;2022-07-06T10:07:16;100334.29;;;24.32;41.28
70338;BME280;57757;53.198;19.646;2022-07-06T10:09:45;100331.53;;;24.38;40.97
70338;BME280;57757;53.198;19.646;2022-07-06T10:12:16;100336.21;;;24.21;40.54
70338;BME280;57757;53.198;19.646;2022-07-06T10:14:45;100336.48;;;24.16;40.89
70338;BME280;57757;53.198;19.646;2022-07-06T10:17:18;100328.02;;;24.35;40.76
70338;BME280;57757;53.198;19.646;2022-07-06T10:19:48;100333.55;;;24.48;40.58
70338;BME280;57757;53.198;19.646;2022-07-06T10:22:17;100333.54;;;24.42;40.13
70338;BME280;57757;53.198;19.646;2022-07-06T10:24:46;100332.57;;;24.32;40.17
70338;BME280;57757;53.198;19.646;2022-07-06T10:27:14;100332.05;;;24.33;40.23
70338;BME280;57757;53.198;19.646;2022-07-06T10:29:42;100336.11;;;24.34;40.06
70338;BME280;57757;53.198;19.646;2022-07-06T10:32:10;100332.23;;;24.38;39.85
70338;BME280;57757;53.198;19.646;2022-07-06T10:34:38;100333.52;;;24.30;39.24
70338;BME280;57757;53.198;19.646;2022-07-06T10:37:05;100335.03;;;24.13;39.18
70338;BME280;57757;53.198;19.646;2022-07-06T10:39:37;100336.45;;;24.06;39.39
70338;BME280;57757;53.198;19.646;2022-07-06T10:53:15;100336.70;;;23.87;39.08
70338;BME280;57757;53.198;19.646;2022-07-06T10:55:44;100336.48;;;23.88;39.20
70338;BME280;57757;53.198;19.646;2022-07-06T10:58:15;100347.54;;;23.91;38.95
70338;BME280;57757;53.198;19.646;2022-07-06T11:03:48;100341.42;;;23.60;38.89
70338;BME280;57757;53.198;19.646;2022-07-06T11:06:18;100346.05;;;23.65;38.89
70338;BME280;57757;53.198;19.646;2022-07-06T11:08:49;100344.73;;;23.51;38.78
70338;BME280;57757;53.198;19.646;2022-07-06T11:11:25;100338.73;;;23.51;38.84
70338;BME280;57757;53.198;19.646;2022-07-06T11:13:56;100340.75;;;23.71;38.83
70338;BME280;57757;53.198;19.646;2022-07-06T11:16:26;100342.29;;;24.16;39.15
70338;BME280;57757;53.198;19.646;2022-07-06T11:19:11;100341.32;;;24.91;39.47
70338;BME280;57757;53.198;19.646;2022-07-06T11:21:44;100330.27;;;25.83;39.30
70338;BME280;57757;53.198;19.646;2022-07-06T11:24:18;100334.43;;;26.72;38.84
70338;BME280;57757;53.198;19.646;2022-07-06T11:26:48;100329.50;;;27.01;37.49
70338;BME280;57757;53.198;19.646;2022-07-06T11:29:18;100333.66;;;27.12;36.87
70338;BME280;57757;53.198;19.646;2022-07-06T11:31:51;100331.65;;;27.09;36.84
70338;BME280;57757;53.198;19.646;2022-07-06T11:34:27;100332.69;;;27.39;36.94
70338;BME280;57757;53.198;19.646;2022-07-06T11:36:59;100317.71;;;27.69;36.83
70338;BME280;57757;53.198;19.646;2022-07-06T11:39:31;100321.07;;;28.02;36.62
70338;BME280;57757;53.198;19.646;2022-07-06T11:42:00;100319.59;;;28.37;36.31
70338;BME280;57757;53.198;19.646;2022-07-06T11:44:28;100310.94;;;28.43;35.73
70338;BME280;57757;53.198;19.646;2022-07-06T11:46:56;100307.80;;;28.38;35.81
70338;BME280;57757;53.198;19.646;2022-07-06T11:49:24;100318.27;;;28.57;35.73
70338;BME280;57757;53.198;19.646;2022-07-06T11:51:52;100312.80;;;28.82;35.72
70338;BME280;57757;53.198;19.646;2022-07-06T11:54:21;100316.53;;;29.18;35.46
70338;BME280;57757;53.198;19.646;2022-07-06T11:56:51;100313.73;;;29.15;35.08
70338;BME280;57757;53.198;19.646;2022-07-06T11:59:24;100306.52;;;29.51;35.31
70338;BME280;57757;53.198;19.646;2022-07-06T12:01:59;100303.23;;;29.56;35.10
70338;BME280;57757;53.198;19.646;2022-07-06T12:04:27;100301.16;;;29.75;34.92
70338;BME280;57757;53.198;19.646;2022-07-06T12:06:55;100303.86;;;29.75;34.66
70338;BME280;57757;53.198;19.646;2022-07-06T12:09:29;100294.23;;;30.13;34.78
70338;BME280;57757;53.198;19.646;2022-07-06T12:11:57;100294.92;;;30.62;34.66
70338;BME280;57757;53.198;19.646;2022-07-06T12:14:25;100292.98;;;30.95;34.17
70338;BME280;57757;53.198;19.646;2022-07-06T12:16:52;100288.81;;;31.53;34.38
70338;BME280;57757;53.198;19.646;2022-07-06T12:19:23;100287.83;;;31.68;33.36
70338;BME280;57757;53.198;19.646;2022-07-06T12:21:51;100287.73;;;31.63;33.16
70338;BME280;57757;53.198;19.646;2022-07-06T12:24:23;100280.88;;;31.65;33.09
70338;BME280;57757;53.198;19.646;2022-07-06T12:26:53;100285.25;;;31.92;33.13
70338;BME280;57757;53.198;19.646;2022-07-06T12:29:21;100281.88;;;32.07;32.91
70338;BME280;57757;53.198;19.646;2022-07-06T12:31:54;100278.38;;;32.21;32.65
70338;BME280;57757;53.198;19.646;2022-07-06T12:34:24;100277.09;;;32.48;32.39
70338;BME280;57757;53.198;19.646;2022-07-06T12:36:57;100278.48;;;32.17;31.83
70338;BME280;57757;53.198;19.646;2022-07-06T12:39:42;100279.42;;;31.73;31.69
70338;BME280;57757;53.198;19.646;2022-07-06T12:42:10;100283.45;;;30.73;31.40
70338;BME280;57757;53.198;19.646;2022-07-06T12:44:47;100287.89;;;29.60;31.70
70338;BME280;57757;53.198;19.646;2022-07-06T12:47:20;100293.02;;;28.72;31.77
70338;BME280;57757;53.198;19.646;2022-07-06T12:50:07;100297.77;;;27.75;31.92
70338;BME280;57757;53.198;19.646;2022-07-06T12:52:35;100300.71;;;26.76;32.14
70338;BME280;57757;53.198;19.646;2022-07-06T12:55:05;100305.55;;;26.00;32.31
70338;BME280;57757;53.198;19.646;2022-07-06T12:57:47;100312.02;;;25.25;32.70
70338;BME280;57757;53.198;19.646;2022-07-06T13:00:15;100324.89;;;24.59;32.96
70338;BME280;57757;53.198;19.646;2022-07-06T13:02:45;100328.93;;;23.84;33.94